Time;durP1;ratioP1;P1;durP2;ratioP2;P2;SDS_P1;SDS_P2;PMS_P1;PMS_P2;Temp;Humidity;BMP_temperature;BMP_pressure;BME280_temperature;BME280_humidity;BME280_pressure;Samples;Min_cycle;Max_cycle;Signal;HPM_P1;HPM_P2
2021/12/05 00:23:47;;;;;;;;;1.00;0.00;;;;;9.32;60.81;99978.88;5021815;28;45348;-69
2021/12/05 00:26:18;;;;;;;;;0.50;0.00;;;;;9.32;60.54;99981.53;5021807;28;45275;-70
2021/12/05 00:31:48;;;;;;;;;1.00;1.00;;;;;9.30;60.49;99966.53;5021941;28;45588;-69
2021/12/05 01:16:35;;;;;;;;;0.25;0.25;;;;;9.25;60.68;99935.66;5021142;28;45347;-70
2021/12/05 01:19:01;;;;;;;;;0.00;0.00;;;;;9.26;60.72;99936.50;5021219;28;45225;-70
2021/12/05 01:21:27;;;;;;;;;0.00;0.00;;;;;9.26;60.22;99940.03;5021301;28;45323;-70
2021/12/05 01:26:30;;;;;;;;;0.00;0.00;;;;;9.25;60.48;99943.63;5020650;28;45473;-70
2021/12/05 01:39:42;;;;;;;;;0.00;0.00;;;;;9.24;60.53;99912.59;5020758;28;45524;-70
2021/12/05 02:29:32;;;;;;;;;0.00;0.00;;;;;9.12;60.33;99891.78;5020522;28;45426;-70
2021/12/05 02:41:34;;;;;;;;;0.00;0.00;;;;;9.12;60.84;99901.56;5019432;28;45998;-70
2021/12/05 02:44:04;;;;;;;;;2.00;0.25;;;;;9.13;60.58;99903.31;5019941;28;45600;-70
2021/12/05 02:46:29;;;;;;;;;0.00;0.00;;;;;9.13;60.64;99893.50;5019992;28;45422;-70
2021/12/05 02:49:00;;;;;;;;;0.00;0.00;;;;;9.15;60.75;99898.78;5019735;28;45410;-70
2021/12/05 02:51:28;;;;;;;;;0.00;0.00;;;;;9.16;60.19;99885.41;5019652;28;46961;-70
2021/12/05 02:54:04;;;;;;;;;0.00;0.00;;;;;9.17;60.13;99889.81;5019649;28;45544;-70
2021/12/05 02:56:36;;;;;;;;;0.00;0.00;;;;;9.14;60.43;99870.41;5019462;28;45442;-70
2021/12/05 02:59:18;;;;;;;;;0.25;0.00;;;;;9.12;60.11;99859.84;5019915;28;46277;-70
2021/12/05 03:01:47;;;;;;;;;0.25;0.00;;;;;9.17;60.10;99876.50;5019618;28;47533;-70
2021/12/05 03:04:12;;;;;;;;;0.00;0.00;;;;;9.14;60.48;99862.41;5019547;28;45525;-70
2021/12/05 03:06:49;;;;;;;;;0.00;0.00;;;;;9.11;60.61;99866.09;5019858;28;45221;-70
2021/12/05 03:09:14;;;;;;;;;0.00;0.00;;;;;9.09;60.59;99862.63;5023065;28;45398;-70
2021/12/05 03:11:41;;;;;;;;;0.00;0.00;;;;;9.11;60.22;99874.06;5022830;28;45517;-70
2021/12/05 03:14:07;;;;;;;;;0.00;0.00;;;;;9.09;60.53;99870.63;5022891;28;45302;-70
2021/12/05 03:16:35;;;;;;;;;0.00;0.00;;;;;9.06;60.59;99874.25;5023219;28;45326;-70
2021/12/05 03:19:00;;;;;;;;;0.00;0.00;;;;;9.04;60.14;99865.47;5022987;28;45236;-70
2021/12/05 03:21:27;;;;;;;;;0.00;0.00;;;;;8.99;60.59;99843.50;5023095;28;45284;-70
2021/12/05 03:23:56;;;;;;;;;0.25;0.00;;;;;9.08;60.30;99866.19;5022779;28;45645;-70
2021/12/05 03:26:31;;;;;;;;;0.00;0.00;;;;;9.07;60.51;99865.34;5022808;28;45366;-70
2021/12/05 03:28:57;;;;;;;;;1.00;0.00;;;;;9.07;60.11;99861.78;5022801;28;45452;-70
2021/12/05 03:31:25;;;;;;;;;0.00;0.00;;;;;9.04;60.38;99864.59;5022762;28;47186;-70
2021/12/05 03:33:51;;;;;;;;;2.00;0.00;;;;;9.01;60.14;99852.28;5022659;28;45522;-70
2021/12/05 03:36:16;;;;;;;;;0.00;0.00;;;;;9.02;60.15;99861.13;5023094;28;45327;-70
2021/12/05 03:38:42;;;;;;;;;0.00;0.00;;;;;9.05;60.40;99858.34;5022541;28;45239;-70
2021/12/05 03:41:10;;;;;;;;;0.00;0.00;;;;;9.04;60.34;99857.47;5022455;28;45404;-70
2021/12/05 03:43:36;;;;;;;;;0.00;0.00;;;;;8.98;60.11;99854.19;5022449;28;45601;-70
2021/12/05 03:46:03;;;;;;;;;0.00;0.00;;;;;9.00;60.07;99855.84;5022850;28;45326;-70
2021/12/05 03:48:33;;;;;;;;;1.00;0.00;;;;;9.01;60.06;99846.09;5022341;28;45308;-70
2021/12/05 03:50:59;;;;;;;;;0.00;0.00;;;;;9.01;60.17;99846.09;5022275;28;46135;-70
2021/12/05 03:53:25;;;;;;;;;0.00;0.00;;;;;9.01;60.44;99835.44;5022339;28;45404;-70
2021/12/05 03:55:55;;;;;;;;;0.00;0.00;;;;;9.02;60.14;99843.38;5022658;28;45426;-70
2021/12/05 03:58:21;;;;;;;;;0.00;0.00;;;;;9.01;60.21;99844.28;5022136;28;45319;-70
2021/12/05 04:00:50;;;;;;;;;0.00;0.00;;;;;9.02;60.43;99845.16;5022539;28;45306;-70
2021/12/05 04:03:18;;;;;;;;;0.00;0.00;;;;;8.99;60.31;99843.50;5022487;28;45642;-70
2021/12/05 04:05:44;;;;;;;;;0.00;0.00;;;;;9.00;60.08;99841.69;5022571;28;45302;-70
2021/12/05 04:08:13;;;;;;;;;0.00;0.00;;;;;9.02;60.30;99845.16;5022445;28;45201;-70
2021/12/05 04:10:42;;;;;;;;;0.00;0.00;;;;;8.96;60.06;99827.63;5022082;28;45670;-70
2021/12/05 04:13:07;;;;;;;;;0.00;0.00;;;;;8.93;59.99;99827.75;5021782;28;45414;-70
2021/12/05 04:15:33;;;;;;;;;0.00;0.00;;;;;8.99;60.01;99838.16;5022360;28;45518;-70
2021/12/05 04:17:59;;;;;;;;;0.00;0.00;;;;;8.98;60.15;99833.75;5021848;28;45484;-70
2021/12/05 04:20:25;;;;;;;;;0.00;0.00;;;;;8.97;60.06;99839.13;5021833;28;46300;-70
2021/12/05 04:22:53;;;;;;;;;0.00;0.00;;;;;8.93;59.86;99841.06;5022195;28;45527;-70
2021/12/05 04:25:20;;;;;;;;;0.00;0.00;;;;;8.95;59.69;99830.34;5022059;28;45219;-70
2021/12/05 04:27:49;;;;;;;;;0.00;0.00;;;;;8.98;59.84;99840.88;5021922;28;45293;-70
2021/12/05 04:30:19;;;;;;;;;0.00;0.00;;;;;8.98;59.68;99839.09;5021634;28;46143;-70
2021/12/05 04:32:44;;;;;;;;;0.25;0.00;;;;;8.96;59.69;99837.44;5022256;28;45652;-70
2021/12/05 04:35:10;;;;;;;;;0.00;0.00;;;;;8.90;59.42;99836.75;5021984;28;45558;-70
2021/12/05 04:37:36;;;;;;;;;0.00;0.00;;;;;8.84;59.58;99836.97;5021875;28;45240;-70
2021/12/05 04:40:04;;;;;;;;;0.00;0.00;;;;;8.80;59.48;99838.00;5021355;28;46172;-70
2021/12/05 04:42:29;;;;;;;;;0.00;0.00;;;;;8.72;59.79;99821.50;5021553;28;45246;-70
2021/12/05 04:44:55;;;;;;;;;0.25;0.00;;;;;8.76;59.37;99827.56;5021709;28;45542;-70
2021/12/05 04:47:21;;;;;;;;;0.00;0.00;;;;;8.74;59.54;99835.63;5021789;28;45339;-70
2021/12/05 04:49:47;;;;;;;;;0.00;0.00;;;;;8.72;59.30;99829.50;5021366;28;45423;-70
2021/12/05 04:52:13;;;;;;;;;0.00;0.00;;;;;8.70;59.50;99826.00;5021527;28;45223;-70
2021/12/05 04:54:39;;;;;;;;;0.00;0.00;;;;;8.72;59.66;99829.50;5021704;28;45493;-70
2021/12/05 04:57:05;;;;;;;;;0.00;0.00;;;;;8.71;59.62;99833.06;5021245;28;45291;-70
2021/12/05 04:59:35;;;;;;;;;0.00;0.00;;;;;8.68;59.83;99826.06;5021361;28;46065;-70
2021/12/05 05:02:03;;;;;;;;;0.00;0.00;;;;;8.70;59.43;99826.00;5021544;28;45577;-69
2021/12/05 05:04:29;;;;;;;;;0.00;0.00;;;;;8.69;59.59;99829.59;5021541;28;45231;-69
2021/12/05 05:07:03;;;;;;;;;0.00;0.00;;;;;8.67;59.86;99834.09;5021476;28;45323;-70
2021/12/05 05:09:28;;;;;;;;;0.00;0.00;;;;;8.62;59.66;99820.13;5021234;28;46437;-69
2021/12/05 05:11:54;;;;;;;;;0.00;0.00;;;;;8.62;59.76;99810.38;5020823;28;45390;-70
2021/12/05 05:14:20;;;;;;;;;0.00;0.00;;;;;8.59;59.67;99810.47;5021338;28;45371;-70
2021/12/05 05:16:48;;;;;;;;;0.00;0.00;;;;;8.58;59.59;99814.06;5021299;28;45374;-69
2021/12/05 05:19:16;;;;;;;;;1.00;0.00;;;;;8.61;59.60;99813.09;5021150;28;46317;-70
2021/12/05 05:21:50;;;;;;;;;0.00;0.00;;;;;8.57;59.85;99807.00;5021104;28;45524;-70
2021/12/05 05:29:46;;;;;;;;;0.00;0.00;;;;;8.65;59.79;99812.91;5020349;28;45359;-70
2021/12/05 05:45:50;;;;;;;;;1.50;0.00;;;;;8.62;59.98;99820.13;5020780;28;45374;-69
2021/12/05 05:51:03;;;;;;;;;1.25;0.00;;;;;8.65;59.92;99806.69;5021956;28;45453;-70
2021/12/05 05:53:29;;;;;;;;;0.00;0.00;;;;;8.69;59.99;99826.94;5020257;28;45398;-69
2021/12/05 05:55:55;;;;;;;;;0.00;0.00;;;;;8.67;60.29;99829.66;5020873;28;45296;-70
2021/12/05 05:58:27;;;;;;;;;0.00;0.00;;;;;8.68;60.34;99830.53;5020442;28;45481;-70
2021/12/05 06:01:07;;;;;;;;;0.00;0.00;;;;;8.67;60.00;99829.66;5020346;28;46081;-70
2021/12/05 06:03:33;;;;;;;;;0.00;0.00;;;;;8.67;60.17;99816.38;5020530;28;45306;-70
2021/12/05 06:06:05;;;;;;;;;0.00;0.00;;;;;8.67;60.27;99820.78;5020597;28;45259;-69
2021/12/05 06:08:33;;;;;;;;;0.25;0.00;;;;;8.68;60.19;99818.06;5020521;28;45512;-69
2021/12/05 06:11:01;;;;;;;;;1.50;0.00;;;;;8.67;60.48;99815.47;5019915;28;46215;-70
2021/12/05 06:13:28;;;;;;;;;0.00;0.00;;;;;8.70;60.35;99813.59;5020402;28;45404;-69
2021/12/05 06:15:54;;;;;;;;;1.00;0.00;;;;;8.70;60.17;99810.03;5020387;28;45619;-70
2021/12/05 06:18:20;;;;;;;;;0.00;0.00;;;;;8.66;60.14;99792.47;5020447;28;45613;-70
2021/12/05 06:20:46;;;;;;;;;0.00;0.00;;;;;8.62;60.89;99790.84;5020038;28;46750;-69
2021/12/05 06:23:12;;;;;;;;;0.00;0.00;;;;;8.68;60.48;99798.59;5020315;28;45332;-69
2021/12/05 06:25:41;;;;;;;;;0.00;0.00;;;;;8.67;60.67;99794.19;5020272;28;45322;-70
2021/12/05 06:28:13;;;;;;;;;0.00;0.00;;;;;8.68;60.64;99791.47;5019922;28;45301;-70
2021/12/05 06:46:18;;;;;;;;;1.00;0.00;;;;;8.64;60.24;99808.50;5020167;28;45318;-69
2021/12/05 06:48:45;;;;;;;;;0.50;0.50;;;;;8.61;60.53;99802.44;5006890;28;45424;-69
2021/12/05 06:51:14;;;;;;;;;0.00;0.00;;;;;8.49;60.06;99791.34;5019622;28;46268;-69
2021/12/05 06:53:40;;;;;;;;;0.00;0.00;;;;;8.57;60.36;99806.13;5019883;28;45548;-69
2021/12/05 06:56:07;;;;;;;;;0.00;0.00;;;;;8.55;60.42;99802.66;5019640;28;45227;-69
2021/12/05 06:58:33;;;;;;;;;0.00;0.00;;;;;8.49;60.36;99796.66;5019810;28;45466;-69
2021/12/05 07:01:04;;;;;;;;;0.00;0.00;;;;;8.53;60.59;99808.03;5019651;28;46535;-69
2021/12/05 07:03:30;;;;;;;;;0.00;0.00;;;;;8.55;60.58;99810.66;5019825;28;45552;-69
2021/12/05 07:06:04;;;;;;;;;0.00;0.00;;;;;8.56;60.60;99825.69;5019742;28;45329;-69
2021/12/05 07:08:33;;;;;;;;;0.00;0.00;;;;;8.59;60.88;99836.22;5019631;28;45377;-69
2021/12/05 07:42:43;;;;;;;;;0.00;0.00;;;;;8.53;62.69;99819.53;5019057;28;45685;-69
2021/12/05 07:45:14;;;;;;;;;0.00;0.00;;;;;8.59;62.57;99839.75;5018923;28;45457;-69
2021/12/05 07:47:40;;;;;;;;;0.00;0.00;;;;;8.53;62.36;99821.34;5019242;28;45249;-70
2021/12/05 07:50:09;;;;;;;;;2.00;0.00;;;;;8.53;62.89;99814.22;5018685;28;45975;-69
2021/12/05 07:52:40;;;;;;;;;0.00;0.00;;;;;8.52;63.06;99819.63;5018995;28;46318;-69
2021/12/05 07:55:15;;;;;;;;;0.25;0.00;;;;;8.56;62.62;99834.53;5022204;28;45255;-69
2021/12/05 07:58:07;;;;;;;;;0.50;0.00;;;;;8.53;62.86;99822.19;5022350;28;45315;-69
2021/12/05 08:16:35;;;;;;;;;0.00;0.00;;;;;8.60;62.95;99844.13;5022250;28;45472;-69
2021/12/05 08:19:02;;;;;;;;;0.50;0.00;;;;;8.60;63.03;99837.94;5022148;28;45526;-69
2021/12/05 08:21:27;;;;;;;;;2.00;1.00;;;;;8.61;63.27;99845.84;5022036;28;45623;-69
2021/12/05 08:23:53;;;;;;;;;0.00;0.00;;;;;8.64;63.47;99844.88;5021932;28;45450;-69
2021/12/05 08:26:29;;;;;;;;;1.00;0.00;;;;;8.62;63.60;99842.28;5021721;28;45413;-69
2021/12/05 08:29:05;;;;;;;;;0.00;0.00;;;;;8.58;63.50;99832.66;5022152;28;45171;-69
2021/12/05 10:11:23;;;;;;;;;1.00;1.00;;;;;9.21;63.71;99893.22;5019725;28;46172;-69
2021/12/05 10:14:00;;;;;;;;;0.50;0.00;;;;;9.24;63.43;99898.41;5020134;28;45343;-69
2021/12/05 10:16:56;;;;;;;;;1.00;1.00;;;;;9.19;63.81;99889.75;5019850;28;45288;-69
2021/12/05 10:38:48;;;;;;;;;0.75;0.75;;;;;9.37;63.68;99893.44;5020128;28;45366;-70
2021/12/05 10:43:58;;;;;;;;;0.00;0.00;;;;;9.34;64.23;99889.13;5019785;28;45413;-69
2021/12/05 10:46:26;;;;;;;;;2.00;1.00;;;;;9.38;64.03;99884.53;5019880;28;45173;-70
2021/12/05 10:48:55;;;;;;;;;1.00;1.00;;;;;9.44;64.28;99884.28;5020072;28;45296;-70
2021/12/05 10:51:27;;;;;;;;;1.00;1.00;;;;;9.44;64.37;99870.97;5019765;28;45243;-70
2021/12/05 10:53:58;;;;;;;;;1.00;1.00;;;;;9.46;64.37;99867.28;5019618;28;45518;-69
2021/12/05 10:56:31;;;;;;;;;1.00;1.00;;;;;9.50;64.08;99878.69;5019406;28;45229;-69
2021/12/05 10:59:23;;;;;;;;;4.00;1.00;;;;;9.54;63.54;99879.41;5019928;28;45323;-70
2021/12/05 11:01:50;;;;;;;;;2.00;2.00;;;;;9.53;64.09;99873.22;5021437;28;45465;-70
2021/12/05 11:04:25;;;;;;;;;0.00;0.00;;;;;9.52;63.62;99870.63;5019500;28;46900;-70
2021/12/05 11:06:52;;;;;;;;;1.00;1.00;;;;;9.58;63.61;99881.91;5019784;28;45240;-69
2021/12/05 11:09:22;;;;;;;;;1.00;1.00;;;;;9.59;63.74;99864.13;5019608;28;45429;-69
2021/12/05 11:11:54;;;;;;;;;0.00;0.00;;;;;9.60;63.53;99865.84;5019206;28;45508;-69
2021/12/05 11:14:25;;;;;;;;;2.00;1.00;;;;;9.62;64.03;99855.97;5019257;28;46085;-70
2021/12/05 11:17:13;;;;;;;;;2.00;1.00;;;;;9.59;63.70;99864.13;5019583;28;45560;-70
2021/12/05 11:20:02;;;;;;;;;1.00;1.00;;;;;9.62;63.66;99864.88;5019672;28;45292;-69
2021/12/05 11:22:34;;;;;;;;;2.00;2.00;;;;;9.62;64.08;99858.66;5021501;28;45389;-69
2021/12/05 11:25:03;;;;;;;;;1.00;1.00;;;;;9.67;63.66;99855.78;5019438;28;45389;-69
2021/12/05 11:27:40;;;;;;;;;2.00;1.00;;;;;9.68;63.86;99861.06;5019007;28;45415;-69
2021/12/05 11:30:14;;;;;;;;;2.50;2.00;;;;;9.71;63.81;99860.09;5022873;28;45149;-69
2021/12/05 11:32:56;;;;;;;;;1.00;1.00;;;;;9.70;63.86;99863.66;5023191;28;45261;-70
2021/12/05 11:35:33;;;;;;;;;2.25;2.00;;;;;9.69;63.54;99857.47;5022657;28;46125;-69
2021/12/05 11:38:28;;;;;;;;;1.00;1.00;;;;;9.70;63.60;99855.66;5022827;28;45311;-69
2021/12/05 11:41:03;;;;;;;;;1.75;1.00;;;;;9.72;63.45;99859.13;5026086;28;45583;-69
2021/12/05 11:43:32;;;;;;;;;3.50;2.50;;;;;9.71;63.60;99852.94;5022493;28;45484;-69
2021/12/05 11:46:02;;;;;;;;;3.75;2.50;;;;;9.70;63.74;99867.19;5022567;28;47051;-69
2021/12/05 11:48:40;;;;;;;;;0.00;0.00;;;;;9.70;63.19;99859.19;5022218;28;45327;-69
2021/12/05 11:51:55;;;;;;;;;0.00;0.00;;;;;9.73;63.33;99863.53;5022720;28;45403;-69
2021/12/05 11:54:46;;;;;;;;;1.75;1.50;;;;;9.68;63.90;99871.72;5025901;28;45545;-69
2021/12/05 11:57:29;;;;;;;;;1.50;1.50;;;;;9.67;64.00;99877.97;5022067;28;47175;-70
2021/12/05 12:00:03;;;;;;;;;0.75;0.75;;;;;9.61;64.22;99881.78;5022113;28;45420;-70
2021/12/05 12:02:36;;;;;;;;;0.50;0.50;;;;;9.54;63.99;99887.41;5022748;28;45424;-70
2021/12/05 12:05:22;;;;;;;;;0.25;0.25;;;;;9.45;64.24;99881.56;5022495;28;45414;-70
2021/12/05 12:08:03;;;;;;;;;0.75;0.75;;;;;9.51;64.14;99899.06;5022273;28;46182;-69
2021/12/05 12:10:33;;;;;;;;;0.50;0.50;;;;;9.47;64.46;99910.78;5022113;28;45330;-69
2021/12/05 12:13:15;;;;;;;;;1.00;1.00;;;;;9.41;64.00;99906.56;5021936;28;45224;-69
2021/12/05 12:15:43;;;;;;;;;1.00;0.00;;;;;9.30;64.19;99889.31;5022064;28;45398;-69
2021/12/05 12:18:18;;;;;;;;;0.00;0.00;;;;;9.29;63.72;99901.75;5022171;28;46036;-70
2021/12/05 12:20:46;;;;;;;;;0.00;0.00;;;;;9.24;64.04;99901.94;5022000;28;45565;-69
2021/12/05 12:23:15;;;;;;;;;0.00;0.00;;;;;9.22;63.84;99906.47;5022364;28;45383;-69
2021/12/05 12:25:43;;;;;;;;;0.00;0.00;;;;;9.21;64.12;99895.88;5021670;28;45217;-69
2021/12/05 12:28:10;;;;;;;;;1.00;0.00;;;;;9.20;64.18;99905.63;5022054;28;46603;-69
2021/12/05 12:30:43;;;;;;;;;0.00;0.00;;;;;9.18;64.17;99910.16;5021770;28;45593;-69
2021/12/05 12:33:13;;;;;;;;;0.00;0.00;;;;;9.16;64.36;99901.38;5022176;28;45326;-69
2021/12/05 12:35:42;;;;;;;;;0.00;0.00;;;;;9.17;64.22;99915.56;5021835;28;45313;-70
2021/12/05 12:38:25;;;;;;;;;1.00;1.00;;;;;9.14;64.46;99919.22;5021702;28;45304;-70
2021/12/05 12:41:00;;;;;;;;;0.00;0.00;;;;;9.12;64.30;99913.09;5020959;28;45316;-70
2021/12/05 12:43:43;;;;;;;;;0.75;0.75;;;;;9.13;64.14;99909.47;5021751;28;45266;-69
2021/12/05 12:46:27;;;;;;;;;0.00;0.00;;;;;9.14;64.03;99916.56;5021694;28;45291;-69
2021/12/05 12:49:15;;;;;;;;;0.00;0.00;;;;;9.15;64.13;99912.94;5010237;28;46738;-69
2021/12/05 12:51:56;;;;;;;;;1.50;0.75;;;;;9.12;63.99;99925.50;5023699;28;45813;-69
2021/12/05 12:54:28;;;;;;;;;1.00;1.00;;;;;9.07;63.79;99926.59;5021786;28;45411;-69
2021/12/05 12:57:09;;;;;;;;;0.75;0.75;;;;;9.05;64.04;99935.53;5021246;28;45516;-69
2021/12/05 12:59:41;;;;;;;;;1.00;0.00;;;;;9.06;64.10;99934.63;5021354;28;46073;-69
2021/12/05 13:05:02;;;;;;;;;0.00;0.00;;;;;9.08;64.44;99932.75;5021549;28;45243;-69
2021/12/05 13:10:37;;;;;;;;;1.00;1.00;;;;;9.15;63.65;99936.91;5021164;28;45728;-69
2021/12/05 13:13:15;;;;;;;;;1.00;1.00;;;;;9.11;63.75;99924.66;5021138;28;45435;-69
2021/12/05 13:15:52;;;;;;;;;1.75;1.00;;;;;9.19;63.92;99943.00;5021237;28;45321;-69
2021/12/05 13:18:26;;;;;;;;;1.00;1.00;;;;;9.18;63.89;99944.78;5021381;28;46456;-69
2021/12/05 13:20:57;;;;;;;;;1.00;0.00;;;;;9.22;64.09;99948.19;5020995;28;46033;-69
2021/12/05 13:23:28;;;;;;;;;1.25;1.25;;;;;9.15;64.08;99938.72;5021202;28;45235;-69
2021/12/05 13:26:02;;;;;;;;;1.25;1.25;;;;;9.21;64.12;99944.66;5020741;28;45505;-69
2021/12/05 13:28:30;;;;;;;;;1.25;1.25;;;;;9.22;63.50;99949.06;5021027;28;45471;-69
2021/12/05 13:30:56;;;;;;;;;1.50;1.00;;;;;9.22;63.87;99951.75;5020808;28;46162;-69
2021/12/05 13:33:25;;;;;;;;;4.00;2.00;;;;;9.18;63.68;99947.44;5020858;28;45364;-69
2021/12/05 13:35:57;;;;;;;;;2.75;2.00;;;;;9.23;64.13;99955.25;5021112;28;45484;-69
2021/12/05 13:38:40;;;;;;;;;1.75;1.75;;;;;9.22;64.38;99953.50;5020756;28;45363;-69
2021/12/05 13:41:24;;;;;;;;;3.00;1.25;;;;;9.23;63.91;99956.13;5011576;28;47008;-69
2021/12/05 13:43:55;;;;;;;;;3.25;3.00;;;;;9.22;63.91;99949.06;5020885;28;45318;-69
2021/12/05 13:46:38;;;;;;;;;4.75;4.25;;;;;9.27;64.24;99957.75;5020711;28;45310;-69
2021/12/05 13:49:31;;;;;;;;;4.50;3.25;;;;;9.24;64.64;99959.66;5020685;28;45526;-70
2021/12/05 13:52:29;;;;;;;;;7.00;4.25;;;;;9.24;64.34;99965.00;5006584;28;45567;-69
2021/12/05 13:55:36;;;;;;;;;5.25;4.25;;;;;9.25;64.98;99967.59;5020514;28;45656;-69
2021/12/05 13:58:34;;;;;;;;;4.50;4.00;;;;;9.25;64.64;99975.59;5020750;28;45313;-70
2021/12/05 14:01:05;;;;;;;;;4.00;4.00;;;;;9.23;64.38;99974.75;5020407;28;45520;-70
2021/12/05 14:03:41;;;;;;;;;2.75;2.75;;;;;9.24;64.46;99975.66;5020602;28;46657;-69
2021/12/05 14:06:43;;;;;;;;;4.00;4.00;;;;;9.25;64.41;99982.69;5020335;28;45579;-69
2021/12/05 14:09:17;;;;;;;;;5.25;5.25;;;;;9.28;64.45;99986.09;5020402;28;45169;-70
2021/12/05 14:12:06;;;;;;;;;3.25;3.25;;;;;9.29;64.86;99984.31;5020091;28;45237;-69
2021/12/05 14:14:37;;;;;;;;;3.75;2.00;;;;;9.29;64.91;99984.31;5019933;28;46079;-70
2021/12/05 14:17:10;;;;;;;;;4.00;3.25;;;;;9.28;64.62;99983.44;5020372;28;45300;-69
2021/12/05 14:19:38;;;;;;;;;1.00;1.00;;;;;9.27;64.75;99984.38;5020438;28;45215;-70
2021/12/05 14:22:08;;;;;;;;;3.25;3.25;;;;;9.26;64.84;99987.97;5020250;28;45502;-69
2021/12/05 14:24:37;;;;;;;;;3.75;3.75;;;;;9.26;65.12;99989.75;5020199;28;45309;-70
2021/12/05 14:27:08;;;;;;;;;4.00;4.00;;;;;9.27;65.16;99986.16;5019667;28;45177;-70
2021/12/05 14:29:39;;;;;;;;;2.75;2.75;;;;;9.34;64.94;100000.09;5020272;28;45310;-70
2021/12/05 14:32:12;;;;;;;;;4.00;3.00;;;;;9.36;64.66;100003.59;5019900;28;45452;-69
2021/12/05 14:34:39;;;;;;;;;2.00;2.00;;;;;9.36;64.74;100003.59;5020001;28;46171;-69
2021/12/05 14:37:33;;;;;;;;;3.00;3.00;;;;;9.42;64.60;100016.66;5019938;28;45318;-69
2021/12/05 14:40:06;;;;;;;;;1.50;1.50;;;;;9.41;64.67;100009.59;5020455;28;45210;-69
2021/12/05 14:42:34;;;;;;;;;3.75;3.00;;;;;9.43;64.88;100015.72;5019581;28;45368;-70
2021/12/05 14:45:07;;;;;;;;;1.50;1.50;;;;;9.45;64.58;100019.19;5019504;28;45429;-69
2021/12/05 14:47:35;;;;;;;;;3.00;2.75;;;;;9.40;64.72;100008.72;5019939;28;45571;-70
2021/12/05 14:50:17;;;;;;;;;2.75;2.75;;;;;9.49;64.75;100023.50;5019512;28;45446;-70
2021/12/05 14:52:46;;;;;;;;;3.00;2.00;;;;;9.51;64.79;100028.78;5019882;28;45324;-69
2021/12/05 14:55:14;;;;;;;;;2.00;2.00;;;;;9.44;64.29;100023.66;5019633;28;46213;-69
2021/12/05 14:57:43;;;;;;;;;2.50;2.50;;;;;9.51;64.38;100042.94;5019449;28;45367;-70
2021/12/05 15:00:14;;;;;;;;;3.25;2.00;;;;;9.51;64.57;100042.94;5019817;28;45328;-70
2021/12/05 15:02:41;;;;;;;;;3.50;2.00;;;;;9.52;64.46;100047.34;5021192;28;45244;-69
2021/12/05 15:05:14;;;;;;;;;2.00;2.00;;;;;9.49;64.66;100041.25;5023200;28;46464;-69
2021/12/05 15:07:41;;;;;;;;;2.00;2.00;;;;;9.50;64.84;100053.66;5023222;28;45520;-70
2021/12/05 15:10:07;;;;;;;;;3.00;1.75;;;;;9.51;64.68;100058.06;5023111;28;45244;-69
2021/12/05 15:12:34;;;;;;;;;1.00;1.00;;;;;9.50;65.15;100064.31;5022825;28;45594;-69
2021/12/05 15:15:07;;;;;;;;;2.00;2.00;;;;;9.48;65.35;100063.50;5023180;28;46253;-69
2021/12/05 15:17:39;;;;;;;;;3.50;3.50;;;;;9.50;65.07;100067.84;5023097;28;45455;-70
2021/12/05 15:20:09;;;;;;;;;2.00;2.00;;;;;9.53;64.98;100067.72;5023051;28;45461;-69
2021/12/05 15:22:35;;;;;;;;;4.50;3.00;;;;;9.56;64.91;100080.06;5022861;28;45222;-69
2021/12/05 15:25:05;;;;;;;;;3.00;3.00;;;;;9.57;65.32;100077.34;5022965;28;45383;-69
2021/12/05 15:27:32;;;;;;;;;7.75;4.25;;;;;9.60;65.37;100081.69;5022544;28;45553;-69
2021/12/05 15:30:11;;;;;;;;;5.75;4.00;;;;;9.60;65.70;100082.53;5022865;28;45484;-69
2021/12/05 15:32:37;;;;;;;;;4.00;4.00;;;;;9.59;65.42;100082.63;5022794;28;45397;-70
2021/12/05 15:35:06;;;;;;;;;3.00;3.00;;;;;9.62;65.36;100096.69;5022599;28;45403;-69
2021/12/05 15:37:32;;;;;;;;;2.00;2.00;;;;;9.60;65.73;100098.53;5022702;28;45259;-69
2021/12/05 15:39:59;;;;;;;;;3.50;2.75;;;;;9.60;65.36;100098.53;5022641;28;45359;-70
2021/12/05 15:42:28;;;;;;;;;4.00;3.00;;;;;9.62;65.74;100107.34;5022396;28;45367;-69
2021/12/05 15:44:56;;;;;;;;;3.75;3.00;;;;;9.62;65.30;100115.34;5022393;28;45277;-69
2021/12/05 15:47:27;;;;;;;;;4.00;3.00;;;;;9.56;65.27;100115.56;5022563;28;45267;-70
2021/12/05 15:50:02;;;;;;;;;2.00;2.00;;;;;9.59;65.58;100128.78;5022421;28;45316;-69
2021/12/05 15:52:43;;;;;;;;;2.00;2.00;;;;;9.56;65.18;100131.56;5022424;28;45428;-69
2021/12/05 15:55:34;;;;;;;;;1.75;1.50;;;;;9.56;65.83;100141.34;5022260;28;46622;-69
2021/12/05 15:58:02;;;;;;;;;4.25;4.25;;;;;9.56;65.36;100138.69;5024575;28;45365;-69
2021/12/05 16:00:32;;;;;;;;;2.00;2.00;;;;;9.51;65.56;100146.84;5022619;28;45359;-69
2021/12/05 16:03:02;;;;;;;;;3.00;2.00;;;;;9.49;65.72;100156.72;5022218;28;45491;-69
2021/12/05 16:05:29;;;;;;;;;2.00;2.00;;;;;9.50;66.16;100160.22;5022325;28;46312;-69
2021/12/05 16:08:02;;;;;;;;;4.00;2.50;;;;;9.50;66.08;100161.09;5022319;28;45658;-69
2021/12/05 16:10:30;;;;;;;;;2.75;2.75;;;;;9.49;65.50;100167.34;5022072;28;45252;-69
2021/12/05 16:12:56;;;;;;;;;4.50;3.00;;;;;9.46;65.84;100173.66;5021965;28;45445;-69
2021/12/05 16:15:28;;;;;;;;;7.00;5.50;;;;;9.46;65.62;100175.47;5021308;28;45441;-69
2021/12/05 16:17:59;;;;;;;;;4.00;4.00;;;;;9.46;65.54;100180.78;5022088;28;45485;-69
2021/12/05 16:20:40;;;;;;;;;3.00;3.00;;;;;9.48;65.70;100194.06;5022050;28;45447;-69
2021/12/05 16:23:10;;;;;;;;;2.50;2.50;;;;;9.47;66.10;100201.16;5022117;28;45461;-69
2021/12/05 16:26:01;;;;;;;;;3.00;2.75;;;;;9.46;65.62;100188.78;5021494;28;45514;-69
2021/12/05 16:28:34;;;;;;;;;4.50;4.50;;;;;9.47;65.90;100195.84;5021936;28;45648;-69
2021/12/05 16:31:26;;;;;;;;;3.75;3.25;;;;;9.52;65.46;100207.22;5022220;28;45554;-69
2021/12/05 16:34:02;;;;;;;;;4.75;4.75;;;;;9.53;65.89;100208.06;5021817;28;45275;-69
2021/12/05 16:36:46;;;;;;;;;5.00;4.00;;;;;9.53;65.96;100214.28;5021742;28;47120;-69
2021/12/05 16:39:22;;;;;;;;;3.00;3.00;;;;;9.50;65.76;100216.19;5021755;28;45160;-69
2021/12/05 16:41:55;;;;;;;;;4.75;4.00;;;;;9.52;65.96;100214.31;5021560;28;45224;-69
2021/12/05 16:44:29;;;;;;;;;7.25;4.25;;;;;9.52;65.97;100225.88;5021739;28;45180;-69
2021/12/05 16:47:00;;;;;;;;;3.00;3.00;;;;;9.53;65.77;100226.72;5021386;28;46067;-69
2021/12/05 16:49:34;;;;;;;;;4.50;4.50;;;;;9.51;65.83;100212.59;5021655;28;45507;-69
2021/12/05 16:52:30;;;;;;;;;7.50;4.75;;;;;9.56;65.89;100235.47;5008930;28;45512;-69
2021/12/05 16:55:19;;;;;;;;;4.00;4.00;;;;;9.57;65.41;100229.22;5018536;28;45561;-70
2021/12/05 16:57:56;;;;;;;;;5.00;2.25;;;;;9.61;65.34;100244.16;5021031;28;45728;-69
2021/12/05 17:00:23;;;;;;;;;7.50;6.50;;;;;9.63;65.43;100239.66;5021391;28;45547;-69
2021/12/05 17:02:58;;;;;;;;;4.25;4.25;;;;;9.63;65.50;100249.44;5021518;28;45218;-69
2021/12/05 17:05:28;;;;;;;;;5.75;4.75;;;;;9.63;65.10;100246.78;5021562;28;45230;-69
2021/12/05 17:08:11;;;;;;;;;5.25;5.25;;;;;9.61;65.38;100246.84;5021198;28;46062;-70
2021/12/05 17:10:39;;;;;;;;;4.75;4.75;;;;;9.62;65.38;100250.34;5020739;28;45648;-70
2021/12/05 17:13:14;;;;;;;;;4.75;4.75;;;;;9.60;65.68;100250.41;5021353;28;45243;-69
2021/12/05 17:15:47;;;;;;;;;4.50;4.50;;;;;9.55;65.84;100241.72;5021071;28;45319;-69
2021/12/05 17:18:22;;;;;;;;;7.75;7.00;;;;;9.60;65.86;100271.72;5021398;28;45335;-70
2021/12/05 17:20:52;;;;;;;;;5.00;4.00;;;;;9.61;65.58;100268.16;5021075;28;45347;-70
2021/12/05 17:23:21;;;;;;;;;5.75;4.25;;;;;9.63;65.45;100268.97;5021562;28;45373;-70
2021/12/05 17:25:50;;;;;;;;;6.25;5.00;;;;;9.66;65.86;100261.81;5020594;28;45275;-69
2021/12/05 17:28:28;;;;;;;;;3.50;3.50;;;;;9.68;65.30;100271.47;5021155;28;46101;-69
2021/12/05 17:30:57;;;;;;;;;4.00;4.00;;;;;9.68;65.27;100276.78;5020975;28;45276;-69
2021/12/05 17:33:25;;;;;;;;;1.50;1.50;;;;;9.62;65.36;100283.22;5021338;28;45497;-69
2021/12/05 17:35:51;;;;;;;;;2.00;2.00;;;;;9.60;65.58;100278.88;5020914;28;45172;-69
2021/12/05 17:38:29;;;;;;;;;3.75;3.00;;;;;9.60;65.21;100277.06;5020849;28;45768;-69
2021/12/05 17:40:54;;;;;;;;;3.00;3.00;;;;;9.52;65.38;100279.16;5020373;28;45478;-69
2021/12/05 17:43:19;;;;;;;;;5.25;5.00;;;;;9.53;65.68;100278.22;5020905;28;45397;-69
2021/12/05 17:45:44;;;;;;;;;4.00;4.00;;;;;9.58;65.13;100289.56;5020725;28;45648;-69
2021/12/05 17:48:10;;;;;;;;;7.25;5.50;;;;;9.59;65.13;100298.47;5020462;28;45317;-70
2021/12/05 17:50:38;;;;;;;;;4.50;4.50;;;;;9.59;65.39;100298.47;5020505;28;45356;-70
2021/12/05 17:53:04;;;;;;;;;3.75;3.75;;;;;9.57;65.21;100303.84;5020630;28;45271;-69